Terminal Aerodrome Forecast
Issued by NWS Flagstaff, AZ

Home | Current Version | Previous Version | Text Only | Print | Product List | Glossary On
Versions: 1 2 3 4 5 6 7 8 9 10 11 12 13 14 15
000
FTUS45 KFGZ 300531
TAFINW
TAF
KINW 300531Z 3006/3106 21010G15KT P6SM SCT140 BKN200
     FM300900 VRB06KT P6SM FEW140 SCT200
     FM302200 25010G15KT P6SM FEW100 BKN120
      TEMPO 3022/3102 VRB10G20KT 4SM -TSRA BKN100CB
     FM310200 VRB10G20KT P6SM VCSH BKN100
     FM310500 VRB06KT P6SM BKN100=

USA.gov is the U.S. government's official web portal to all federal, state and local government web resources and services.